createdAt,value
2023-04-11T00:01:29.632Z,14.63
2023-04-11T00:03:57.260Z,18.58
2023-04-11T00:06:26.164Z,17.88
2023-04-11T00:08:53.622Z,13.82
2023-04-11T00:11:21.069Z,15.32
2023-04-11T00:13:48.810Z,15.10
2023-04-11T00:16:16.801Z,15.20
2023-04-11T00:18:45.164Z,15.32
2023-04-11T00:21:12.140Z,12.98
2023-04-11T00:23:39.207Z,15.63
2023-04-11T00:26:06.397Z,16.67
2023-04-11T00:28:33.875Z,15.50
2023-04-11T00:31:01.202Z,14.43
2023-04-11T00:33:28.290Z,21.00
2023-04-11T00:35:55.330Z,14.73
2023-04-11T00:38:22.343Z,17.25
2023-04-11T00:40:49.294Z,18.73
2023-04-11T00:43:16.360Z,17.20
2023-04-11T00:45:43.511Z,15.68
2023-04-11T00:48:11.049Z,18.58
2023-04-11T00:50:42.538Z,15.48
2023-04-11T00:53:13.136Z,17.63
2023-04-11T00:55:40.740Z,15.60
2023-04-11T00:58:08.749Z,15.40
2023-04-11T01:00:35.869Z,14.20
2023-04-11T01:03:03.125Z,20.92
2023-04-11T01:05:31.931Z,11.27
2023-04-11T01:08:00.163Z,17.67
2023-04-11T01:10:30.899Z,18.23
2023-04-11T01:13:01.536Z,20.83
2023-04-11T01:15:28.888Z,15.00
2023-04-11T01:17:58.058Z,22.27
2023-04-11T01:20:26.515Z,16.50
2023-04-11T01:22:54.391Z,14.93
2023-04-11T01:25:22.457Z,18.17
2023-04-11T01:27:49.545Z,18.58
2023-04-11T01:30:16.831Z,17.80
2023-04-11T01:32:43.824Z,17.42
2023-04-11T01:35:12.480Z,20.23
2023-04-11T01:37:39.774Z,18.65
2023-04-11T01:40:07.809Z,18.15
2023-04-11T01:42:35.871Z,18.85
2023-04-11T01:45:04.756Z,21.70
2023-04-11T01:47:31.985Z,19.80
2023-04-11T01:49:59.069Z,15.07
2023-04-11T01:52:26.462Z,20.67
2023-04-11T01:54:53.499Z,20.50
2023-04-11T01:57:20.522Z,21.30
2023-04-11T01:59:47.510Z,13.15
2023-04-11T02:02:15.682Z,13.48
2023-04-11T02:04:42.879Z,14.70
2023-04-11T02:07:09.782Z,12.30
2023-04-11T02:09:37.288Z,9.52
2023-04-11T02:12:05.444Z,9.93
2023-04-11T02:14:43.569Z,11.75
2023-04-11T02:17:13.296Z,14.13
2023-04-11T02:19:45.374Z,9.68
2023-04-11T02:22:13.152Z,14.90
2023-04-11T02:24:40.632Z,14.32
2023-04-11T02:27:08.085Z,10.10
2023-04-11T02:29:35.456Z,17.52
2023-04-11T02:32:02.606Z,16.88
2023-04-11T02:34:29.676Z,14.48
2023-04-11T02:36:56.725Z,13.77
2023-04-11T02:39:26.683Z,17.42
2023-04-11T02:41:55.965Z,17.30
2023-04-11T02:44:22.935Z,21.63
2023-04-11T02:46:50.857Z,18.00
2023-04-11T02:49:17.940Z,16.67
2023-04-11T02:51:47.738Z,15.55
2023-04-11T02:54:14.751Z,18.52
2023-04-11T02:56:43.375Z,23.45
2023-04-11T02:59:10.381Z,20.50
2023-04-11T03:01:38.378Z,14.38
2023-04-11T03:04:07.283Z,12.65
2023-04-11T03:06:48.156Z,12.18
2023-04-11T03:09:15.289Z,15.48
2023-04-11T03:11:43.209Z,12.63
2023-04-11T03:14:11.514Z,15.35
2023-04-11T03:16:38.425Z,14.80
2023-04-11T03:19:06.014Z,12.07
2023-04-11T03:21:33.145Z,17.20
2023-04-11T03:24:00.190Z,13.50
2023-04-11T03:26:27.307Z,14.52
2023-04-11T03:28:59.101Z,15.35
2023-04-11T03:31:30.584Z,17.77
2023-04-11T03:33:59.309Z,12.32
2023-04-11T03:36:27.152Z,13.35
2023-04-11T03:38:54.634Z,11.82
2023-04-11T03:41:21.934Z,13.13
2023-04-11T03:43:50.013Z,13.18
2023-04-11T03:46:20.159Z,17.15
2023-04-11T03:48:47.925Z,10.73
2023-04-11T03:51:16.723Z,8.73
2023-04-11T03:53:56.389Z,7.07
2023-04-11T03:56:28.238Z,12.90
2023-04-11T03:58:55.685Z,10.70
2023-04-11T04:01:26.469Z,17.95
2023-04-11T04:04:00.642Z,16.17
2023-04-11T04:06:29.549Z,9.60
2023-04-11T04:08:59.710Z,8.63
2023-04-11T04:11:29.727Z,15.38
2023-04-11T04:13:57.903Z,19.83
2023-04-11T04:16:25.107Z,15.10
2023-04-11T04:18:57.206Z,13.38
2023-04-11T04:21:26.807Z,9.60
2023-04-11T04:23:57.504Z,17.58
2023-04-11T04:26:43.848Z,10.32
2023-04-11T04:29:38.123Z,11.32
2023-04-11T04:32:13.102Z,11.13
2023-04-11T04:34:55.087Z,7.78
2023-04-11T04:37:33.266Z,11.18
2023-04-11T04:40:08.973Z,9.80
2023-04-11T04:42:44.464Z,14.27
2023-04-11T04:45:11.708Z,15.48
2023-04-11T04:47:38.989Z,6.57
2023-04-11T04:50:07.172Z,10.23
2023-04-11T04:52:34.481Z,14.38
2023-04-11T04:55:01.710Z,5.45
2023-04-11T04:57:31.955Z,13.70
2023-04-11T05:00:01.163Z,8.55
2023-04-11T05:02:28.911Z,17.92
2023-04-11T05:04:57.670Z,12.18
2023-04-11T05:07:26.570Z,11.95
2023-04-11T05:09:53.678Z,13.27
2023-04-11T05:12:27.186Z,21.63
2023-04-11T05:14:58.959Z,12.00
2023-04-11T05:17:29.861Z,14.63
2023-04-11T05:19:57.452Z,12.55
2023-04-11T05:22:25.054Z,15.30
2023-04-11T05:24:55.040Z,16.40
2023-04-11T05:27:22.039Z,12.55
2023-04-11T05:29:48.988Z,13.30
2023-04-11T05:32:18.473Z,11.73
2023-04-11T05:34:59.043Z,9.63
2023-04-11T05:37:38.673Z,13.07
2023-04-11T05:40:08.614Z,13.07
2023-04-11T05:42:35.826Z,11.80
2023-04-11T05:45:02.868Z,10.35
2023-04-11T05:47:29.920Z,13.82
2023-04-11T05:49:56.862Z,14.20
2023-04-11T05:52:23.889Z,14.32
2023-04-11T05:54:50.890Z,11.23
2023-04-11T05:57:18.065Z,13.27
2023-04-11T05:59:49.842Z,15.13
2023-04-11T06:02:17.522Z,16.08
2023-04-11T06:04:44.616Z,12.27
2023-04-11T06:07:11.982Z,15.48
2023-04-11T06:09:42.010Z,14.38
2023-04-11T06:12:09.452Z,16.35
2023-04-11T06:14:38.706Z,10.65
2023-04-11T06:17:07.193Z,8.98
2023-04-11T06:19:34.438Z,12.48
2023-04-11T06:22:01.620Z,18.77
2023-04-11T06:24:36.724Z,16.80
2023-04-11T06:27:04.055Z,19.35
2023-04-11T06:29:31.128Z,16.70
2023-04-11T06:31:59.253Z,16.42
2023-04-11T06:34:26.225Z,16.15
2023-04-11T06:36:53.327Z,12.48
2023-04-11T06:39:20.349Z,12.75
2023-04-11T06:41:48.312Z,14.45
2023-04-11T06:44:24.077Z,16.10
2023-04-11T06:46:51.247Z,19.90
2023-04-11T06:49:18.979Z,16.85
2023-04-11T06:51:52.007Z,21.35
2023-04-11T06:54:19.211Z,18.73
2023-04-11T06:56:46.373Z,14.07
2023-04-11T06:59:14.035Z,14.43
2023-04-11T07:01:41.056Z,19.27
2023-04-11T07:04:08.492Z,18.00
2023-04-11T07:06:36.084Z,12.85
2023-04-11T07:09:04.102Z,15.20
2023-04-11T07:11:31.621Z,15.50
2023-04-11T07:14:00.089Z,18.10
2023-04-11T07:16:27.310Z,16.55
2023-04-11T07:18:55.724Z,15.85
2023-04-11T07:21:22.762Z,13.30
2023-04-11T07:23:49.924Z,14.60
2023-04-11T07:26:17.894Z,14.00
2023-04-11T07:28:45.286Z,18.50
2023-04-11T07:31:12.707Z,13.95
2023-04-11T07:33:42.682Z,17.52
2023-04-11T07:36:11.063Z,18.27
2023-04-11T07:38:38.064Z,14.50
2023-04-11T07:41:05.733Z,15.23
2023-04-11T07:43:32.691Z,12.63
2023-04-11T07:45:59.865Z,11.90
2023-04-11T07:48:28.285Z,8.38
2023-04-11T07:50:55.510Z,15.10
2023-04-11T07:53:23.009Z,16.90
2023-04-11T07:55:50.092Z,14.10
2023-04-11T07:58:17.080Z,11.45
2023-04-11T08:00:44.034Z,13.13
2023-04-11T08:03:13.468Z,10.40
2023-04-11T08:05:40.750Z,17.35
2023-04-11T08:08:07.977Z,15.02
2023-04-11T08:10:34.973Z,13.63
2023-04-11T08:13:02.027Z,12.30
2023-04-11T08:15:29.034Z,9.82
2023-04-11T08:17:56.790Z,14.75
2023-04-11T08:20:24.734Z,7.97
2023-04-11T08:22:51.790Z,12.40
2023-04-11T08:25:25.172Z,9.43
2023-04-11T08:27:52.597Z,14.80
2023-04-11T08:30:20.207Z,13.95
2023-04-11T08:32:47.348Z,13.85
2023-04-11T08:35:14.446Z,10.65
2023-04-11T08:37:41.650Z,13.70
2023-04-11T08:40:09.576Z,11.35
2023-04-11T08:42:36.749Z,12.57
2023-04-11T08:45:08.404Z,12.90
2023-04-11T08:47:37.062Z,13.38
2023-04-11T08:50:05.654Z,17.75
2023-04-11T08:52:33.543Z,13.02
2023-04-11T08:55:00.680Z,11.98
2023-04-11T08:57:31.388Z,10.88
2023-04-11T09:00:00.844Z,10.45
2023-04-11T09:02:28.016Z,9.40
2023-04-11T09:04:57.709Z,12.75
2023-04-11T09:07:24.847Z,8.68
2023-04-11T09:09:51.834Z,9.73
2023-04-11T09:12:29.243Z,11.05
2023-04-11T09:14:56.709Z,12.32
2023-04-11T09:17:23.829Z,12.32
2023-04-11T09:19:51.025Z,12.15
2023-04-11T09:22:17.990Z,10.82
2023-04-11T09:24:46.778Z,9.50
2023-04-11T09:27:16.661Z,9.48
2023-04-11T09:29:48.269Z,9.77
2023-04-11T09:32:35.164Z,9.82
2023-04-11T09:35:24.884Z,9.48
2023-04-11T09:37:56.972Z,8.70
2023-04-11T09:40:26.403Z,9.98
2023-04-11T09:43:11.325Z,7.88
2023-04-11T09:45:48.017Z,7.20
2023-04-11T09:48:19.651Z,7.38
2023-04-11T09:50:49.729Z,9.70
2023-04-11T09:53:16.908Z,10.38
2023-04-11T09:55:44.542Z,7.53
2023-04-11T09:58:12.723Z,8.95
2023-04-11T10:00:41.313Z,8.77
2023-04-11T10:03:08.387Z,7.15
2023-04-11T10:05:35.593Z,7.60
2023-04-11T10:08:14.367Z,8.38
2023-04-11T10:10:43.723Z,8.13
2023-04-11T10:13:39.804Z,7.80
2023-04-11T10:16:11.227Z,9.43
2023-04-11T10:19:00.331Z,10.23
2023-04-11T10:21:30.175Z,8.65
2023-04-11T10:24:17.825Z,6.53
2023-04-11T10:26:59.723Z,9.07
2023-04-11T10:29:33.628Z,8.13
2023-04-11T10:35:00.650Z,8.50
2023-04-11T10:37:30.479Z,6.28
2023-04-11T10:40:10.053Z,6.53
2023-04-11T10:42:40.448Z,12.65
2023-04-11T10:45:18.169Z,9.75
2023-04-11T10:47:57.325Z,10.43
2023-04-11T10:50:27.325Z,9.65
2023-04-11T10:53:03.393Z,10.50
2023-04-11T10:55:42.478Z,9.68
2023-04-11T10:58:19.618Z,8.95
2023-04-11T11:00:52.904Z,7.95
2023-04-11T11:03:24.875Z,8.80
2023-04-11T11:06:08.577Z,10.70
2023-04-11T11:08:38.150Z,6.00
2023-04-11T11:11:06.976Z,7.63
2023-04-11T11:13:44.230Z,9.15
2023-04-11T11:16:25.206Z,7.88
2023-04-11T11:18:56.739Z,8.00
2023-04-11T11:21:28.359Z,4.93
2023-04-11T11:23:58.150Z,8.27
2023-04-11T11:26:42.762Z,6.78
2023-04-11T11:31:45.887Z,6.22
2023-04-11T11:34:23.320Z,6.95
2023-04-11T11:36:52.664Z,6.53
2023-04-11T11:39:21.283Z,6.82
2023-04-11T11:41:50.112Z,6.43
2023-04-11T11:44:28.465Z,7.68
2023-04-11T11:47:18.137Z,4.72
2023-04-11T11:49:49.859Z,5.63
2023-04-11T11:52:40.010Z,6.45
2023-04-11T11:55:11.380Z,5.35
2023-04-11T11:57:45.263Z,5.65
2023-04-11T12:00:13.161Z,7.15
2023-04-11T12:02:43.072Z,6.93
2023-04-11T12:05:13.585Z,8.52
2023-04-11T12:07:40.988Z,7.40
2023-04-11T12:10:11.901Z,8.90
2023-04-11T12:12:43.884Z,6.07
2023-04-11T12:15:22.930Z,6.45
2023-04-11T12:17:53.629Z,8.48
2023-04-11T12:20:25.102Z,6.78
2023-04-11T12:22:54.361Z,6.88
2023-04-11T12:25:22.612Z,8.55
2023-04-11T12:27:49.641Z,7.85
2023-04-11T12:30:16.989Z,7.43
2023-04-11T12:32:44.809Z,9.02
2023-04-11T12:35:13.098Z,15.77
2023-04-11T12:37:40.590Z,7.05
2023-04-11T12:40:12.302Z,5.60
2023-04-11T12:42:53.110Z,5.00
2023-04-11T12:45:23.158Z,8.45
2023-04-11T12:47:50.343Z,6.75
2023-04-11T12:50:17.887Z,8.80
2023-04-11T12:52:44.908Z,10.07
2023-04-11T12:55:13.466Z,8.88
2023-04-11T12:57:41.569Z,6.30
2023-04-11T13:00:11.250Z,11.52
2023-04-11T13:02:43.945Z,9.80
2023-04-11T13:05:14.625Z,6.40
2023-04-11T13:07:42.840Z,8.45
2023-04-11T13:10:10.438Z,10.90
2023-04-11T13:12:41.641Z,8.73
2023-04-11T13:15:12.034Z,8.40
2023-04-11T13:17:39.309Z,6.72
2023-04-11T13:20:10.386Z,4.80
2023-04-11T13:22:38.911Z,5.95
2023-04-11T13:25:07.019Z,5.95
2023-04-11T13:27:34.722Z,6.57
2023-04-11T13:30:02.289Z,5.32
2023-04-11T13:32:29.449Z,6.47
2023-04-11T13:34:56.790Z,3.97
2023-04-11T13:37:23.795Z,6.10
2023-04-11T13:39:50.766Z,4.65
2023-04-11T13:42:17.818Z,7.03
2023-04-11T13:44:44.811Z,4.85
2023-04-11T13:47:11.936Z,5.85
2023-04-11T13:49:38.945Z,6.55
2023-04-11T13:52:05.993Z,5.75
2023-04-11T13:54:33.045Z,6.65
2023-04-11T13:57:00.874Z,8.40
2023-04-11T13:59:27.850Z,7.55
2023-04-11T14:01:54.858Z,8.57
2023-04-11T14:04:22.450Z,7.18
2023-04-11T14:06:49.628Z,7.15
2023-04-11T14:09:16.641Z,7.53
2023-04-11T14:11:43.730Z,7.30
2023-04-11T14:14:10.738Z,9.27
2023-04-11T14:16:37.872Z,6.63
2023-04-11T14:19:04.845Z,5.38
2023-04-11T14:21:31.888Z,9.68
2023-04-11T14:23:59.309Z,9.57
2023-04-11T14:26:26.737Z,5.15
2023-04-11T14:28:53.818Z,8.23
2023-04-11T14:31:20.899Z,8.82
2023-04-11T14:33:47.970Z,5.75
2023-04-11T14:36:15.066Z,9.27
2023-04-11T14:38:42.016Z,8.38
2023-04-11T14:41:10.487Z,7.15
2023-04-11T14:43:37.437Z,10.25
2023-04-11T14:46:05.998Z,7.60
2023-04-11T14:48:32.988Z,5.65
2023-04-11T14:51:03.117Z,5.60
2023-04-11T14:53:30.440Z,7.05
2023-04-11T14:55:57.422Z,7.53
2023-04-11T14:58:24.401Z,7.70
2023-04-11T15:00:51.692Z,8.65
2023-04-11T15:03:18.896Z,8.98
2023-04-11T15:05:46.108Z,11.70
2023-04-11T15:08:13.092Z,4.90
2023-04-11T15:10:40.044Z,9.98
2023-04-11T15:13:08.990Z,8.48
2023-04-11T15:15:36.478Z,9.35
2023-04-11T15:18:36.002Z,11.13
2023-04-11T15:21:03.491Z,9.88
2023-04-11T15:23:31.080Z,8.77
2023-04-11T15:25:59.966Z,7.82
2023-04-11T15:28:30.793Z,7.93
2023-04-11T15:30:59.071Z,8.32
2023-04-11T15:33:26.707Z,7.85
2023-04-11T15:35:54.088Z,8.88
2023-04-11T15:38:21.843Z,7.47
2023-04-11T15:40:53.421Z,10.30
2023-04-11T15:43:21.198Z,5.63
2023-04-11T15:45:48.225Z,6.40
2023-04-11T15:48:15.687Z,6.63
2023-04-11T15:50:43.410Z,8.38
2023-04-11T15:53:11.121Z,9.75
2023-04-11T15:55:40.388Z,9.00
2023-04-11T15:58:07.679Z,9.70
2023-04-11T16:00:39.020Z,11.23
2023-04-11T16:03:08.499Z,8.68
2023-04-11T16:05:38.314Z,6.10
2023-04-11T16:08:05.823Z,8.95
2023-04-11T16:10:33.852Z,10.25
2023-04-11T16:13:01.832Z,7.93
2023-04-11T16:15:28.857Z,9.70
2023-04-11T16:17:55.875Z,9.05
2023-04-11T16:20:23.017Z,7.03
2023-04-11T16:22:50.027Z,8.82
2023-04-11T16:25:20.860Z,8.32
2023-04-11T16:27:48.701Z,11.45
2023-04-11T16:30:16.832Z,9.27
2023-04-11T16:32:44.260Z,8.68
2023-04-11T16:35:11.380Z,7.22
2023-04-11T16:37:38.461Z,7.13
2023-04-11T16:40:11.468Z,9.20
2023-04-11T16:42:39.737Z,6.65
2023-04-11T16:45:08.161Z,6.70
2023-04-11T16:47:35.659Z,7.32
2023-04-11T16:50:03.812Z,5.57
2023-04-11T16:52:31.137Z,5.55
2023-04-11T16:54:58.171Z,5.82
2023-04-11T16:57:25.748Z,5.05
2023-04-11T16:59:53.193Z,5.20
2023-04-11T17:02:20.366Z,5.40
2023-04-11T17:04:47.353Z,4.35
2023-04-11T17:07:14.333Z,8.10
2023-04-11T17:09:41.594Z,3.83
2023-04-11T17:12:08.661Z,5.65
2023-04-11T17:14:36.610Z,3.58
2023-04-11T17:17:04.145Z,5.70
2023-04-11T17:19:31.612Z,5.05
2023-04-11T17:21:58.633Z,10.18
2023-04-11T17:24:25.825Z,6.13
2023-04-11T17:26:53.374Z,9.10
2023-04-11T17:29:20.328Z,5.38
2023-04-11T17:31:47.349Z,4.72
2023-04-11T17:34:14.302Z,5.15
2023-04-11T17:36:42.977Z,7.03
2023-04-11T17:39:17.128Z,4.93
2023-04-11T17:41:47.928Z,3.70
2023-04-11T17:44:14.927Z,4.20
2023-04-11T17:46:41.980Z,5.40
2023-04-11T17:49:08.989Z,6.20
2023-04-11T17:51:38.909Z,5.93
2023-04-11T17:56:37.128Z,6.72
2023-04-11T17:59:04.077Z,7.53
2023-04-11T18:01:32.915Z,10.95
2023-04-11T18:04:01.636Z,6.93
2023-04-11T18:06:29.656Z,6.80
2023-04-11T18:08:56.778Z,7.07
2023-04-11T18:11:23.979Z,6.72
2023-04-11T18:13:51.062Z,4.63
2023-04-11T18:16:19.481Z,8.35
2023-04-11T18:18:48.115Z,6.97
2023-04-11T18:21:16.480Z,6.82
2023-04-11T18:23:43.472Z,7.57
2023-04-11T18:26:10.867Z,7.70
2023-04-11T18:28:37.909Z,8.30
2023-04-11T18:31:05.313Z,8.00
2023-04-11T18:33:33.953Z,7.45
2023-04-11T18:36:01.834Z,6.75
2023-04-11T18:38:28.794Z,6.03
2023-04-11T18:40:56.784Z,5.47
2023-04-11T18:43:25.015Z,7.10
2023-04-11T18:45:52.130Z,8.30
2023-04-11T18:48:19.195Z,7.95
2023-04-11T18:50:48.633Z,6.40
2023-04-11T18:53:15.823Z,6.85
2023-04-11T18:55:42.936Z,6.80
2023-04-11T18:58:11.741Z,7.05
2023-04-11T19:00:40.801Z,7.97
2023-04-11T19:03:15.451Z,6.75
2023-04-11T19:05:44.022Z,6.63
2023-04-11T19:08:11.199Z,5.07
2023-04-11T19:10:38.257Z,6.30
2023-04-11T19:13:06.429Z,17.85
2023-04-11T19:15:33.560Z,11.25
2023-04-11T19:18:00.864Z,7.75
2023-04-11T19:20:28.351Z,11.00
2023-04-11T19:22:55.362Z,8.45
2023-04-11T19:25:22.477Z,8.63
2023-04-11T19:27:51.213Z,10.40
2023-04-11T19:30:18.750Z,8.20
2023-04-11T19:32:47.499Z,9.30
2023-04-11T19:35:17.145Z,10.65
2023-04-11T19:37:44.398Z,15.40
2023-04-11T19:40:13.666Z,10.98
2023-04-11T19:42:41.879Z,8.30
2023-04-11T19:45:12.534Z,7.78
2023-04-11T19:47:40.951Z,6.78
2023-04-11T19:50:15.278Z,8.85
2023-04-11T19:52:43.457Z,7.72
2023-04-11T19:55:13.955Z,9.68
2023-04-11T19:57:43.507Z,8.07
2023-04-11T20:00:13.311Z,7.60
2023-04-11T20:02:45.029Z,7.93
2023-04-11T20:05:17.402Z,9.13
2023-04-11T20:07:45.915Z,9.65
2023-04-11T20:10:14.168Z,10.00
2023-04-11T20:12:41.511Z,4.63
2023-04-11T20:15:09.508Z,6.22
2023-04-11T20:17:36.612Z,8.35
2023-04-11T20:20:08.504Z,6.30
2023-04-11T20:22:38.367Z,8.07
2023-04-11T20:25:07.505Z,6.18
2023-04-11T20:27:34.558Z,8.52
2023-04-11T20:30:06.920Z,9.43
2023-04-11T20:32:34.061Z,6.50
2023-04-11T20:35:01.652Z,6.53
2023-04-11T20:37:31.702Z,5.88
2023-04-11T20:39:58.831Z,9.77
2023-04-11T20:42:26.202Z,8.25
2023-04-11T20:44:53.690Z,7.30
2023-04-11T20:47:20.707Z,7.22
2023-04-11T20:49:49.647Z,8.07
2023-04-11T20:52:20.117Z,8.85
2023-04-11T20:54:47.163Z,6.88
2023-04-11T20:57:14.136Z,8.50
2023-04-11T20:59:42.522Z,8.45
2023-04-11T21:02:09.554Z,8.82
2023-04-11T21:04:36.923Z,8.02
2023-04-11T21:07:04.011Z,10.68
2023-04-11T21:09:31.229Z,12.40
2023-04-11T21:11:58.186Z,10.55
2023-04-11T21:14:25.327Z,8.85
2023-04-11T21:16:52.313Z,11.85
2023-04-11T21:19:19.330Z,11.68
2023-04-11T21:21:46.313Z,10.27
2023-04-11T21:24:13.298Z,8.63
2023-04-11T21:26:40.259Z,9.38
2023-04-11T21:29:07.262Z,12.63
2023-04-11T21:31:34.568Z,10.10
2023-04-11T21:34:01.589Z,12.93
2023-04-11T21:36:28.714Z,10.75
2023-04-11T21:38:56.017Z,11.38
2023-04-11T21:41:22.967Z,10.60
2023-04-11T21:43:49.997Z,8.00
2023-04-11T21:46:16.923Z,7.95
2023-04-11T21:48:43.911Z,10.63
2023-04-11T21:51:11.020Z,8.48
2023-04-11T21:53:38.015Z,13.95
2023-04-11T21:56:07.385Z,9.30
2023-04-11T21:58:37.322Z,7.72
2023-04-11T22:01:04.552Z,9.75
2023-04-11T22:03:31.898Z,8.45
2023-04-11T22:05:59.074Z,8.27
2023-04-11T22:08:29.344Z,7.40
2023-04-11T22:10:56.791Z,6.72
2023-04-11T22:13:24.217Z,8.88
2023-04-11T22:15:58.620Z,7.07
2023-04-11T22:18:27.220Z,7.65
2023-04-11T22:20:57.154Z,7.93
2023-04-11T22:23:25.245Z,8.95
2023-04-11T22:25:59.401Z,10.20
2023-04-11T22:28:27.087Z,12.75
2023-04-11T22:30:54.583Z,10.85
2023-04-11T22:33:21.641Z,7.95
2023-04-11T22:35:48.645Z,8.13
2023-04-11T22:38:15.999Z,6.57
2023-04-11T22:40:43.100Z,7.63
2023-04-11T22:43:10.722Z,8.63
2023-04-11T22:45:38.013Z,14.48
2023-04-11T22:48:06.278Z,11.32
2023-04-11T22:50:38.033Z,11.00
2023-04-11T22:53:05.590Z,9.43
2023-04-11T22:55:35.718Z,7.63
2023-04-11T22:58:03.481Z,7.22
2023-04-11T23:00:31.501Z,10.60
2023-04-11T23:02:59.907Z,9.68
2023-04-11T23:05:26.969Z,7.60
2023-04-11T23:07:54.019Z,8.35
2023-04-11T23:10:21.023Z,9.27
2023-04-11T23:12:49.454Z,8.40
2023-04-11T23:15:17.510Z,9.00
2023-04-11T23:17:44.926Z,9.35
2023-04-11T23:20:12.873Z,7.20
2023-04-11T23:22:42.266Z,7.85
2023-04-11T23:25:11.015Z,8.85
2023-04-11T23:27:38.627Z,9.32
2023-04-11T23:30:06.483Z,6.57
2023-04-11T23:32:34.292Z,7.13
2023-04-11T23:35:01.651Z,6.38
2023-04-11T23:37:28.675Z,6.65
2023-04-11T23:39:55.600Z,7.97
2023-04-11T23:42:22.695Z,7.25
2023-04-11T23:44:49.654Z,7.05
2023-04-11T23:47:16.690Z,7.07
2023-04-11T23:49:44.425Z,9.95
2023-04-11T23:52:12.348Z,7.07
2023-04-11T23:54:39.317Z,11.52
2023-04-11T23:57:06.314Z,8.43
2023-04-11T23:59:33.298Z,6.55
